Aérodrome :
LOGIN :

S'inscrire | Disclaimer

   EN    FR    IT 

 










Légende :    VFR   VFR Marginal   IFR   IFR Intensif   IFR Très Intensif
Visi : 
Plafond : 
>= 8 km
>= 3000ft
5 à 8 km
1000 à 3000 ft
1500m à 5 km
500 à 1000 ft
800 à 1500m
200 à 500 ft
< 800m
< 200 ft
Symboles :   Orages  Brouillard  Fortes neiges  Fortes précipitations  Vent > 20 kt
SIGMETs :   Divers  Orages  Givrage  Turbulence  Onde Orograph.  Cendres Volcan.






- Altitude de l'aérodrome : -15 ft
- Code IATA : RTM


EHRD - Rotterdam Zestienhoven

DERNIER METAR :
  • 211155Z AUTO 08005KT 340V130 9999 NCD 23/10 Q1016 NOSIG

METARs EXPIRÉS :
  • 211125Z AUTO 06005KT 360V110 9999 NCD 22/10 Q1016 NOSIG
  • 211055Z AUTO 06004KT 020V100 9999 NCD 21/11 Q1016 NOSIG
  • 211025Z AUTO 06003KT 350V160 9999 NCD 20/10 Q1016 NOSIG
  • 210955Z AUTO 06004KT 360V100 9999 NCD 19/12 Q1017 NOSIG
  • 210925Z AUTO 05004KT 010V100 9999 NCD 17/11 Q1017 NOSIG

TAF TAF EHRD
Valide du 21 à 12h jusqu'au 22 à 18h UTC


211102Z 2112/2218 04005KT CAVOK
BECMG 2119/2121 VRB03KT 1500 MIFG BR
BECMG 2121/2123 0400 FG
PROB40 2200/2206 0200 VV000
BECMG 2206/2208 3500 BR
BECMG 2208/2210 27005KT CAVOK



MET'MAP, la Météo Aéronautique d'un coup d'oeil ! - Copyright ORBIFLY Décembre 2007 - Disclaimer

ORBIFLY MET'MAP TEAM :

Programmation & Développement : Alexandra Zaïnal
Sur une idée originale de : Baudouin d'Aumeries
Assistance à la programmation : Marc-Olivier Méhu
Soutien technique & logistique : Manuel Goepfert

Contact : metmap@orbifly.com




SOURCES & CREDITS :

   NOAA